Time;durP1;ratioP1;P1;durP2;ratioP2;P2;SDS_P1;SDS_P2;PMS_P1;PMS_P2;Temp;Humidity;BMP_temperature;BMP_pressure;BME280_temperature;BME280_humidity;BME280_pressure;Samples;Min_cycle;Max_cycle;Signal;HPM_P1;HPM_P2
2023/05/10 00:01:55;;;;;;;2.90;1.57;;;14.20;65.40;;;;;;5079541;28;45989;-66
2023/05/10 00:04:21;;;;;;;2.47;1.20;;;14.20;65.50;;;;;;5079314;28;46438;-66
2023/05/10 00:06:46;;;;;;;3.63;1.50;;;14.20;65.70;;;;;;5079816;28;46596;-67
2023/05/10 00:09:12;;;;;;;2.10;1.30;;;14.20;65.80;;;;;;5081673;28;46486;-66
2023/05/10 00:11:38;;;;;;;3.10;1.50;;;14.20;66.00;;;;;;5080324;28;46436;-66
2023/05/10 00:14:03;;;;;;;2.70;1.50;;;14.20;65.90;;;;;;5078283;28;46329;-66
2023/05/10 00:16:29;;;;;;;2.00;1.30;;;14.20;65.90;;;;;;5080590;28;46403;-66
2023/05/10 00:18:55;;;;;;;2.47;1.77;;;14.20;65.90;;;;;;5080978;28;46425;-66
2023/05/10 00:21:20;;;;;;;2.97;1.77;;;14.20;66.00;;;;;;5079759;28;46440;-66
2023/05/10 00:23:46;;;;;;;2.53;1.50;;;14.20;66.00;;;;;;5080036;28;47048;-66
2023/05/10 00:26:11;;;;;;;3.30;1.60;;;14.20;66.10;;;;;;5079861;28;45894;-66
2023/05/10 00:28:37;;;;;;;2.13;1.37;;;14.20;66.30;;;;;;5081550;28;46531;-66
2023/05/10 00:31:03;;;;;;;2.13;1.53;;;14.10;66.40;;;;;;5076074;28;46403;-66
2023/05/10 00:33:28;;;;;;;2.93;2.00;;;14.10;66.60;;;;;;5078769;28;46373;-65
2023/05/10 00:35:54;;;;;;;7.13;1.93;;;14.10;66.70;;;;;;5078645;28;46440;-66
2023/05/10 00:38:19;;;;;;;3.00;1.77;;;14.10;66.70;;;;;;5082235;28;46357;-66
2023/05/10 00:40:45;;;;;;;3.60;1.60;;;14.10;66.70;;;;;;5079824;28;46272;-66
2023/05/10 00:43:10;;;;;;;2.70;1.47;;;14.10;66.80;;;;;;5080912;28;46464;-67
2023/05/10 00:45:38;;;;;;;2.87;1.63;;;14.10;66.70;;;;;;5081116;28;46308;-66
2023/05/10 00:48:04;;;;;;;2.27;1.40;;;14.10;66.70;;;;;;5078492;28;46430;-66
2023/05/10 00:50:33;;;;;;;2.60;1.30;;;14.10;66.60;;;;;;5080384;28;46448;-66
2023/05/10 00:53:00;;;;;;;2.47;1.10;;;14.00;66.90;;;;;;5079693;28;47140;-66
2023/05/10 00:55:26;;;;;;;1.73;0.90;;;14.00;67.20;;;;;;5079028;28;46475;-66
2023/05/10 00:57:53;;;;;;;2.10;1.10;;;14.00;67.30;;;;;;5079656;28;46388;-67
2023/05/10 01:00:19;;;;;;;3.00;1.40;;;14.00;67.30;;;;;;5076798;28;46404;-67
2023/05/10 01:02:46;;;;;;;1.70;0.90;;;13.90;67.20;;;;;;5080759;28;46432;-66
2023/05/10 01:05:12;;;;;;;2.27;1.30;;;13.90;67.20;;;;;;5077989;28;46354;-66
2023/05/10 01:07:38;;;;;;;1.93;1.10;;;13.90;67.20;;;;;;5084216;28;46364;-66
2023/05/10 01:10:07;;;;;;;2.80;1.37;;;13.90;67.20;;;;;;5080218;28;46396;-66
2023/05/10 01:12:36;;;;;;;1.80;1.10;;;13.90;67.20;;;;;;5079622;28;47418;-66
2023/05/10 01:15:02;;;;;;;2.03;1.20;;;13.90;67.10;;;;;;5078554;28;46431;-66
2023/05/10 01:17:29;;;;;;;1.80;1.00;;;13.90;67.30;;;;;;5077399;28;46629;-66
2023/05/10 01:19:55;;;;;;;2.63;1.20;;;13.90;67.30;;;;;;5079457;28;46341;-66
2023/05/10 01:22:49;;;;;;;3.57;1.40;;;13.80;67.50;;;;;;5073986;28;46650;-66
2023/05/10 01:25:48;;;;;;;1.90;0.93;;;13.80;67.90;;;;;;5078817;28;46494;-66
2023/05/10 01:28:32;;;;;;;1.90;1.10;;;13.70;67.80;;;;;;5079798;28;45824;-66
2023/05/10 01:31:18;;;;;;;2.17;1.10;;;13.70;67.80;;;;;;5081011;28;46404;-66
2023/05/10 01:33:50;;;;;;;1.60;0.90;;;13.70;67.80;;;;;;5075155;28;46562;-66
2023/05/10 01:36:26;;;;;;;2.57;1.10;;;13.70;67.80;;;;;;5077925;28;46037;-67
2023/05/10 01:39:01;;;;;;;3.63;1.20;;;13.70;67.80;;;;;;5074996;28;46378;-66
2023/05/10 01:41:36;;;;;;;3.17;1.30;;;13.70;67.80;;;;;;5079274;28;46365;-66
2023/05/10 01:44:26;;;;;;;2.23;0.97;;;13.70;68.00;;;;;;5076649;28;48572;-67
2023/05/10 01:47:02;;;;;;;1.50;0.80;;;13.70;67.80;;;;;;5077470;28;46432;-66
2023/05/10 01:49:32;;;;;;;2.10;1.00;;;13.70;67.80;;;;;;5079766;28;46416;-67
2023/05/10 01:52:08;;;;;;;1.80;1.00;;;13.70;67.80;;;;;;5076086;28;46537;-67
2023/05/10 01:54:35;;;;;;;1.70;0.93;;;13.70;67.80;;;;;;5079061;28;46483;-67
2023/05/10 01:57:05;;;;;;;1.93;1.10;;;13.70;67.90;;;;;;5078591;28;46390;-65
2023/05/10 01:59:41;;;;;;;1.87;1.00;;;13.70;67.80;;;;;;5077212;28;46221;-66
2023/05/10 02:02:11;;;;;;;1.77;0.97;;;13.70;67.80;;;;;;5076586;28;45784;-65
2023/05/10 02:04:39;;;;;;;1.97;1.13;;;13.60;67.80;;;;;;5076963;28;46517;-66
2023/05/10 02:07:06;;;;;;;1.80;1.00;;;13.60;67.70;;;;;;5077112;27;46732;-66
2023/05/10 02:09:33;;;;;;;3.23;1.00;;;13.60;67.70;;;;;;5079235;28;46468;-66
2023/05/10 02:12:02;;;;;;;5.10;0.90;;;13.60;67.80;;;;;;5078131;28;46707;-67
2023/05/10 02:14:30;;;;;;;2.93;1.20;;;13.70;67.80;;;;;;5079570;28;46316;-66
2023/05/10 02:16:58;;;;;;;2.17;1.23;;;13.70;67.90;;;;;;5078329;28;46340;-66
2023/05/10 02:19:25;;;;;;;2.27;1.13;;;13.70;67.80;;;;;;5080628;28;46561;-66
2023/05/10 02:21:51;;;;;;;4.83;1.40;;;13.70;67.80;;;;;;5077323;28;46427;-66
2023/05/10 02:24:18;;;;;;;2.20;1.17;;;13.80;67.90;;;;;;5076321;28;47575;-66
2023/05/10 02:26:45;;;;;;;2.63;1.20;;;13.80;67.90;;;;;;5076500;28;46364;-66
2023/05/10 02:29:13;;;;;;;2.00;1.30;;;13.80;67.90;;;;;;5078028;28;46447;-66
2023/05/10 02:31:43;;;;;;;1.80;1.17;;;13.80;67.90;;;;;;5071729;28;45739;-66
2023/05/10 02:34:10;;;;;;;1.97;1.03;;;13.80;67.90;;;;;;5075095;28;46614;-65
2023/05/10 02:36:37;;;;;;;2.00;1.10;;;13.80;68.00;;;;;;5078667;28;46511;-66
2023/05/10 02:39:04;;;;;;;2.33;1.50;;;13.80;67.90;;;;;;5075762;28;45868;-67
2023/05/10 02:41:32;;;;;;;1.97;1.07;;;13.80;67.90;;;;;;5079787;28;46282;-67
2023/05/10 02:44:01;;;;;;;1.90;1.00;;;13.90;68.00;;;;;;5074868;28;47124;-66
2023/05/10 02:46:26;;;;;;;2.93;1.10;;;13.80;67.90;;;;;;5078743;28;46294;-68
2023/05/10 02:48:52;;;;;;;4.17;1.33;;;13.80;67.90;;;;;;5077359;28;46734;-66
2023/05/10 02:51:20;;;;;;;1.60;0.90;;;13.90;68.00;;;;;;5075935;28;46475;-66
2023/05/10 02:53:47;;;;;;;2.13;1.10;;;13.80;67.90;;;;;;5076016;28;46985;-67
2023/05/10 02:56:28;;;;;;;2.40;1.10;;;13.80;67.90;;;;;;5077252;28;46406;-66
2023/05/10 02:58:54;;;;;;;3.23;1.17;;;13.80;68.00;;;;;;5078386;28;46369;-66
2023/05/10 03:01:20;;;;;;;1.97;1.17;;;13.80;68.10;;;;;;5074589;28;46689;-66
2023/05/10 03:03:45;;;;;;;1.90;1.20;;;13.80;68.10;;;;;;5076163;28;46516;-66
2023/05/10 03:06:11;;;;;;;2.10;1.13;;;13.90;68.30;;;;;;5076953;28;46492;-66
2023/05/10 03:08:37;;;;;;;1.83;1.03;;;13.90;68.10;;;;;;5080018;28;46321;-66
2023/05/10 03:11:27;;;;;;;2.70;1.07;;;13.90;68.00;;;;;;5079992;28;46838;-67
2023/05/10 03:14:02;;;;;;;3.07;1.20;;;14.00;68.10;;;;;;5076831;28;46628;-65
2023/05/10 03:16:52;;;;;;;1.73;1.00;;;14.00;68.10;;;;;;5079869;28;46511;-66
2023/05/10 03:19:41;;;;;;;3.50;1.43;;;14.00;68.20;;;;;;5075536;28;46472;-66
2023/05/10 03:22:10;;;;;;;1.93;1.10;;;14.00;68.10;;;;;;5080832;28;46443;-66
2023/05/10 03:24:38;;;;;;;1.70;1.10;;;14.00;68.10;;;;;;5080368;28;47131;-66
2023/05/10 03:27:05;;;;;;;2.57;1.20;;;14.00;68.10;;;;;;5081795;28;46526;-65
2023/05/10 03:29:32;;;;;;;2.40;1.20;;;14.00;68.10;;;;;;5080529;28;46504;-66
2023/05/10 03:31:59;;;;;;;3.57;1.37;;;14.00;68.10;;;;;;5080129;28;46411;-66
2023/05/10 03:34:25;;;;;;;1.97;1.27;;;14.00;68.20;;;;;;5081964;28;46387;-66
2023/05/10 03:36:51;;;;;;;2.10;1.10;;;14.00;68.10;;;;;;5079294;28;46273;-67
2023/05/10 03:39:16;;;;;;;1.60;1.00;;;14.00;69.40;;;;;;5080722;28;46420;-67
2023/05/10 03:41:42;;;;;;;2.33;1.00;;;14.00;68.20;;;;;;5082376;28;46322;-67
2023/05/10 03:44:07;;;;;;;2.63;1.00;;;14.00;68.20;;;;;;5081735;28;47319;-66
2023/05/10 03:46:33;;;;;;;1.67;1.00;;;14.00;68.20;;;;;;5082118;28;46425;-65
2023/05/10 03:48:59;;;;;;;1.50;0.77;;;13.90;68.90;;;;;;5081420;28;46474;-66
2023/05/10 03:51:27;;;;;;;1.57;0.83;;;13.70;70.80;;;;;;5081116;28;46282;-66
2023/05/10 03:53:54;;;;;;;1.73;0.70;;;13.60;71.10;;;;;;5081142;28;47145;-66
2023/05/10 03:56:20;;;;;;;3.30;0.83;;;13.50;72.10;;;;;;5080688;28;46730;-66
2023/05/10 03:58:46;;;;;;;1.40;0.73;;;13.40;72.70;;;;;;5081461;28;46334;-67
2023/05/10 04:01:12;;;;;;;6.30;0.80;;;13.40;72.70;;;;;;5081540;28;46499;-66
2023/05/10 04:03:38;;;;;;;1.63;0.73;;;13.30;73.20;;;;;;5080644;28;46454;-66
2023/05/10 04:06:04;;;;;;;1.73;0.80;;;13.20;74.20;;;;;;5079408;28;45838;-66
2023/05/10 04:08:30;;;;;;;1.93;0.73;;;13.10;74.70;;;;;;5083068;28;46367;-66
2023/05/10 04:11:08;;;;;;;1.33;0.60;;;13.10;75.10;;;;;;5078301;28;46419;-66
2023/05/10 04:13:34;;;;;;;1.60;0.70;;;13.10;75.30;;;;;;5080202;28;47130;-66
2023/05/10 04:16:00;;;;;;;4.40;0.80;;;13.10;75.30;;;;;;5080695;28;46526;-67
2023/05/10 04:18:26;;;;;;;1.87;0.60;;;13.10;75.50;;;;;;5081233;28;46492;-66
2023/05/10 04:20:51;;;;;;;1.43;0.70;;;13.10;75.20;;;;;;5082441;28;46357;-66
2023/05/10 04:23:17;;;;;;;1.40;0.70;;;13.10;74.90;;;;;;5079354;28;46220;-66
2023/05/10 04:25:43;;;;;;;1.37;0.67;;;13.20;74.40;;;;;;5081575;28;46451;-66
2023/05/10 04:28:09;;;;;;;1.40;0.80;;;13.20;74.60;;;;;;5081663;28;46367;-67
2023/05/10 04:30:34;;;;;;;1.30;0.70;;;13.20;74.70;;;;;;5081140;28;46332;-67
2023/05/10 04:33:01;;;;;;;1.70;0.80;;;13.20;74.80;;;;;;5076462;28;46363;-66
2023/05/10 04:35:27;;;;;;;1.83;0.90;;;13.30;74.80;;;;;;5080768;28;46451;-67
2023/05/10 04:37:53;;;;;;;6.73;1.00;;;13.30;74.60;;;;;;5079519;28;46568;-66
2023/05/10 04:40:19;;;;;;;6.50;0.90;;;13.30;74.50;;;;;;5080949;28;45969;-66
2023/05/10 04:42:45;;;;;;;2.83;0.87;;;13.30;74.30;;;;;;5076462;28;47191;-66
2023/05/10 04:45:10;;;;;;;1.50;0.70;;;13.40;74.10;;;;;;5081800;28;46869;-66
2023/05/10 04:47:36;;;;;;;3.43;0.90;;;13.30;73.90;;;;;;5079382;28;46271;-67
2023/05/10 04:50:06;;;;;;;1.73;0.97;;;13.40;74.10;;;;;;5080801;28;46411;-66
2023/05/10 04:52:31;;;;;;;1.40;0.70;;;13.30;74.00;;;;;;5078382;28;46494;-66
2023/05/10 04:54:57;;;;;;;1.60;0.80;;;13.30;74.10;;;;;;5078622;28;46100;-67
2023/05/10 04:57:23;;;;;;;4.40;0.80;;;13.30;74.70;;;;;;5079757;28;46588;-66
2023/05/10 04:59:48;;;;;;;1.60;0.70;;;13.20;75.10;;;;;;5075389;28;46403;-66
2023/05/10 05:02:14;;;;;;;1.50;0.80;;;13.30;75.20;;;;;;5079852;28;48022;-66
2023/05/10 05:04:39;;;;;;;2.37;0.90;;;13.30;75.30;;;;;;5078302;28;46408;-66
2023/05/10 05:07:05;;;;;;;1.33;0.77;;;13.30;75.10;;;;;;5080175;28;46719;-66
2023/05/10 05:09:31;;;;;;;2.23;1.10;;;13.40;74.80;;;;;;5081696;28;46621;-67
2023/05/10 05:11:57;;;;;;;2.00;0.83;;;13.40;74.70;;;;;;5078784;28;47135;-66
2023/05/10 05:14:24;;;;;;;2.57;1.00;;;13.40;74.70;;;;;;5078744;28;46399;-66
2023/05/10 05:16:51;;;;;;;2.80;0.90;;;13.50;74.60;;;;;;5078241;28;46448;-67
2023/05/10 05:19:17;;;;;;;1.43;0.80;;;13.50;74.50;;;;;;5079706;28;46459;-66
2023/05/10 05:21:43;;;;;;;5.20;0.90;;;13.50;74.40;;;;;;5081997;28;47010;-67
2023/05/10 05:24:08;;;;;;;1.70;0.90;;;13.50;74.30;;;;;;5073212;28;46413;-67
2023/05/10 05:26:34;;;;;;;1.70;0.90;;;13.60;74.60;;;;;;5081381;28;46311;-66
2023/05/10 05:28:59;;;;;;;5.50;0.97;;;13.60;74.30;;;;;;5076996;28;46340;-66
2023/05/10 05:31:25;;;;;;;1.60;0.90;;;13.60;74.50;;;;;;5080939;28;46383;-66
2023/05/10 05:33:51;;;;;;;1.70;0.90;;;13.60;74.40;;;;;;5077506;28;46486;-66
2023/05/10 05:36:16;;;;;;;1.50;0.80;;;13.60;74.50;;;;;;5078385;28;46291;-67
2023/05/10 05:38:42;;;;;;;3.40;0.93;;;13.60;74.50;;;;;;5078998;28;46494;-67
2023/05/10 05:41:08;;;;;;;1.90;0.90;;;13.70;74.40;;;;;;5077926;28;46683;-67
2023/05/10 05:43:34;;;;;;;4.23;0.90;;;13.70;74.10;;;;;;5079191;28;46561;-67
2023/05/10 05:45:59;;;;;;;3.90;1.00;;;13.70;74.20;;;;;;5079302;28;46495;-67
2023/05/10 05:48:25;;;;;;;2.30;1.10;;;13.70;74.10;;;;;;5079381;28;45893;-66
2023/05/10 05:50:55;;;;;;;2.37;1.10;;;13.80;74.10;;;;;;5079204;28;47321;-66
2023/05/10 05:53:21;;;;;;;3.50;1.00;;;13.80;73.80;;;;;;5074336;28;46325;-68
2023/05/10 05:55:57;;;;;;;6.03;1.00;;;13.90;73.40;;;;;;5077292;28;46431;-67
2023/05/10 05:58:24;;;;;;;1.70;0.90;;;13.90;73.50;;;;;;5075873;28;46686;-67
2023/05/10 06:00:50;;;;;;;3.13;1.20;;;13.80;73.50;;;;;;5076183;28;47149;-65
2023/05/10 06:03:16;;;;;;;2.70;1.17;;;13.80;73.50;;;;;;5076118;28;46500;-66
2023/05/10 06:05:41;;;;;;;2.73;1.00;;;13.90;73.00;;;;;;5076399;28;46415;-66
2023/05/10 06:08:07;;;;;;;2.17;1.00;;;14.00;73.00;;;;;;5076957;28;46605;-67
2023/05/10 06:10:32;;;;;;;2.50;1.00;;;13.90;72.90;;;;;;5078811;28;46944;-66
2023/05/10 06:12:58;;;;;;;2.43;1.07;;;14.00;72.60;;;;;;5076238;27;46466;-66
2023/05/10 06:15:24;;;;;;;2.37;0.93;;;14.10;72.40;;;;;;5078388;28;46544;-66
2023/05/10 06:17:49;;;;;;;5.87;1.30;;;14.10;72.20;;;;;;5078409;28;46902;-66
2023/05/10 06:20:15;;;;;;;2.00;0.90;;;14.20;72.10;;;;;;5078059;28;46420;-66
2023/05/10 06:22:41;;;;;;;2.20;1.10;;;14.20;72.00;;;;;;5076497;28;46407;-66
2023/05/10 06:25:08;;;;;;;2.90;1.00;;;14.20;71.80;;;;;;5079725;28;46470;-67
2023/05/10 06:27:33;;;;;;;1.83;0.90;;;14.20;72.90;;;;;;5078218;28;45815;-66
2023/05/10 06:29:59;;;;;;;2.30;1.10;;;14.30;71.70;;;;;;5077964;28;46455;-66
2023/05/10 06:32:25;;;;;;;2.80;0.90;;;14.30;71.50;;;;;;5078057;28;45802;-67
2023/05/10 06:34:50;;;;;;;5.90;1.13;;;14.50;71.20;;;;;;5074275;28;46761;-67
2023/05/10 06:37:16;;;;;;;5.20;1.00;;;14.60;70.90;;;;;;5078183;28;46332;-73
2023/05/10 06:39:42;;;;;;;3.70;1.00;;;14.70;70.60;;;;;;5074531;28;45902;-67
2023/05/10 06:42:07;;;;;;;1.87;1.00;;;14.80;70.10;;;;;;5075617;28;46415;-67
2023/05/10 06:44:33;;;;;;;1.83;0.80;;;14.80;70.00;;;;;;5075233;28;46379;-68
2023/05/10 06:46:59;;;;;;;1.50;0.80;;;15.00;70.00;;;;;;5076658;28;45927;-69
2023/05/10 06:49:24;;;;;;;1.87;0.90;;;15.20;69.20;;;;;;5074969;28;46408;-66
2023/05/10 06:51:51;;;;;;;1.97;1.20;;;15.40;69.40;;;;;;5078184;28;45797;-68
2023/05/10 06:54:17;;;;;;;2.13;0.90;;;15.60;68.90;;;;;;5083469;28;46412;-67
2023/05/10 06:56:43;;;;;;;1.90;1.00;;;15.80;67.60;;;;;;5078300;28;46575;-68
2023/05/10 06:59:09;;;;;;;3.37;1.20;;;16.10;67.50;;;;;;5080826;28;46406;-69
2023/05/10 07:01:34;;;;;;;2.70;1.00;;;16.40;66.40;;;;;;5079789;28;45909;-69
2023/05/10 07:04:00;;;;;;;2.20;1.10;;;16.40;65.20;;;;;;5083005;28;46821;-69
2023/05/10 07:06:27;;;;;;;2.20;1.00;;;16.20;65.30;;;;;;5078807;28;46352;-68
2023/05/10 07:08:52;;;;;;;1.80;0.93;;;16.20;65.10;;;;;;5081002;28;47516;-67
2023/05/10 07:11:18;;;;;;;2.80;1.00;;;16.30;64.60;;;;;;5078274;28;46553;-68
2023/05/10 07:13:46;;;;;;;4.33;1.10;;;16.30;64.80;;;;;;5078649;28;46565;-69
2023/05/10 07:16:11;;;;;;;4.47;1.07;;;16.70;64.40;;;;;;5079945;28;46504;-69
2023/05/10 07:18:37;;;;;;;1.90;0.93;;;16.90;63.50;;;;;;5081948;28;46403;-68
2023/05/10 07:21:03;;;;;;;2.30;1.20;;;17.00;62.90;;;;;;5080917;28;46476;-68
2023/05/10 07:23:29;;;;;;;1.80;1.00;;;17.30;62.40;;;;;;5081323;28;46459;-69
2023/05/10 07:25:57;;;;;;;2.37;1.27;;;17.40;60.70;;;;;;5080248;28;46528;-70
2023/05/10 07:28:24;;;;;;;2.73;1.50;;;17.00;59.70;;;;;;5080385;28;46634;-68
2023/05/10 07:30:50;;;;;;;2.60;1.10;;;16.90;59.90;;;;;;5077522;28;46440;-68
2023/05/10 07:33:15;;;;;;;2.87;1.10;;;17.00;58.10;;;;;;5078256;28;46508;-68
2023/05/10 07:35:42;;;;;;;2.37;1.10;;;16.90;58.00;;;;;;5080307;28;46649;-68
2023/05/10 07:38:07;;;;;;;3.20;1.17;;;16.90;58.10;;;;;;5075722;28;46412;-68
2023/05/10 07:40:33;;;;;;;3.73;1.33;;;16.80;57.00;;;;;;5083043;28;46434;-67
2023/05/10 07:43:01;;;;;;;5.57;1.20;;;16.70;57.30;;;;;;5077405;28;46457;-69
2023/05/10 07:45:27;;;;;;;2.40;1.17;;;16.60;56.30;;;;;;5079319;28;46428;-67
2023/05/10 07:47:52;;;;;;;2.63;1.20;;;16.50;57.30;;;;;;5079959;28;47237;-68
2023/05/10 07:50:18;;;;;;;2.40;1.00;;;16.50;57.70;;;;;;5081000;28;46591;-69
2023/05/10 07:52:44;;;;;;;2.13;1.07;;;16.40;57.60;;;;;;5081254;28;46531;-70
2023/05/10 07:55:09;;;;;;;3.97;1.10;;;16.30;57.40;;;;;;5077237;28;45925;-68
2023/05/10 07:57:35;;;;;;;2.70;1.10;;;16.30;57.40;;;;;;5079443;28;46116;-68
2023/05/10 08:00:01;;;;;;;4.70;1.20;;;16.40;57.50;;;;;;5079959;28;46693;-68
2023/05/10 08:02:26;;;;;;;2.00;0.90;;;16.40;57.60;;;;;;5079327;28;46472;-68
2023/05/10 08:04:52;;;;;;;3.83;1.20;;;16.50;58.50;;;;;;5078079;27;46750;-69
2023/05/10 08:07:18;;;;;;;2.50;1.17;;;16.50;56.80;;;;;;5078794;28;47065;-68
2023/05/10 08:09:43;;;;;;;2.47;1.43;;;16.40;56.10;;;;;;5078658;28;45745;-68
2023/05/10 08:12:09;;;;;;;3.47;1.00;;;16.50;57.30;;;;;;5079328;28;46592;-68
2023/05/10 08:14:36;;;;;;;1.90;1.00;;;16.70;57.70;;;;;;5080839;28;46376;-68
2023/05/10 08:17:03;;;;;;;2.93;1.13;;;16.60;56.20;;;;;;5080061;28;46702;-66
2023/05/10 08:19:28;;;;;;;5.00;1.60;;;16.70;56.00;;;;;;5081083;28;46480;-67
2023/05/10 08:21:55;;;;;;;2.73;1.00;;;16.70;55.80;;;;;;5082170;28;46534;-67
2023/05/10 08:24:21;;;;;;;2.00;1.00;;;16.70;55.00;;;;;;5074770;28;46060;-67
2023/05/10 08:26:47;;;;;;;3.97;1.00;;;16.80;55.00;;;;;;5077992;28;46474;-68
2023/05/10 08:29:13;;;;;;;2.97;1.00;;;16.90;54.80;;;;;;5072378;28;46401;-69
2023/05/10 08:31:39;;;;;;;2.43;0.93;;;17.20;54.50;;;;;;5079996;28;46487;-68
2023/05/10 08:34:05;;;;;;;2.07;0.93;;;17.10;53.90;;;;;;5076770;28;46605;-68
2023/05/10 08:36:31;;;;;;;2.80;1.30;;;17.00;54.20;;;;;;5078268;28;46394;-67
2023/05/10 08:38:57;;;;;;;2.97;1.10;;;17.00;54.20;;;;;;5079387;28;46772;-66
2023/05/10 08:41:25;;;;;;;2.67;1.00;;;17.30;53.90;;;;;;5079461;28;46368;-66
2023/05/10 08:43:52;;;;;;;3.93;1.17;;;17.60;52.10;;;;;;5077926;28;46574;-67
2023/05/10 08:46:19;;;;;;;7.30;1.10;;;17.60;51.10;;;;;;5079049;28;46367;-67
2023/05/10 08:48:46;;;;;;;3.10;1.23;;;17.70;50.50;;;;;;5075282;28;46625;-67
2023/05/10 08:51:15;;;;;;;2.70;0.90;;;17.70;51.00;;;;;;5078344;28;46524;-65
2023/05/10 08:53:40;;;;;;;2.50;1.00;;;17.60;50.50;;;;;;5077655;28;46399;-66
2023/05/10 08:56:06;;;;;;;2.30;1.10;;;17.70;49.90;;;;;;5077629;28;47019;-66
2023/05/10 08:58:32;;;;;;;2.00;1.00;;;17.70;49.90;;;;;;5077726;28;45906;-67
2023/05/10 09:00:59;;;;;;;2.20;1.30;;;17.90;49.70;;;;;;5079906;27;46488;-66
2023/05/10 09:03:25;;;;;;;2.90;1.10;;;18.50;50.00;;;;;;5082712;28;46400;-66
2023/05/10 09:05:50;;;;;;;5.50;1.30;;;19.10;46.80;;;;;;5078613;28;46421;-66
2023/05/10 09:08:17;;;;;;;3.03;1.20;;;18.90;45.10;;;;;;5079309;28;46408;-68
2023/05/10 09:10:44;;;;;;;3.47;1.30;;;18.80;43.80;;;;;;5076916;28;46513;-67
2023/05/10 09:13:15;;;;;;;3.53;1.07;;;18.50;44.70;;;;;;5081751;28;46005;-67
2023/05/10 09:15:41;;;;;;;6.00;1.43;;;18.00;45.20;;;;;;5079759;27;46515;-68
2023/05/10 09:18:06;;;;;;;4.50;1.60;;;17.50;46.30;;;;;;5078556;28;46448;-68
2023/05/10 09:20:32;;;;;;;3.97;1.40;;;16.90;49.90;;;;;;5076364;28;45820;-67
2023/05/10 09:22:58;;;;;;;3.13;1.20;;;16.90;50.80;;;;;;5077098;28;46519;-69
2023/05/10 09:25:23;;;;;;;2.17;1.07;;;17.00;51.70;;;;;;5079098;28;46528;-67
2023/05/10 09:27:49;;;;;;;2.60;1.30;;;17.10;52.10;;;;;;5077358;28;46534;-66
2023/05/10 09:30:30;;;;;;;5.40;1.30;;;17.30;51.80;;;;;;5079584;28;46217;-67
2023/05/10 09:32:57;;;;;;;2.70;1.27;;;17.60;51.10;;;;;;5078913;28;45855;-66
2023/05/10 09:35:26;;;;;;;3.20;1.10;;;17.90;50.00;;;;;;5081186;28;46645;-66
2023/05/10 09:37:53;;;;;;;3.93;1.27;;;17.80;49.90;;;;;;5079123;28;45779;-67
2023/05/10 09:40:21;;;;;;;4.53;1.20;;;17.60;49.90;;;;;;5080246;27;47200;-68
2023/05/10 09:43:05;;;;;;;4.93;1.30;;;17.40;50.50;;;;;;5078014;28;46621;-67
2023/05/10 09:45:32;;;;;;;4.33;1.20;;;16.90;51.30;;;;;;5073793;28;47130;-66
2023/05/10 09:47:59;;;;;;;2.80;1.20;;;16.60;52.90;;;;;;5076822;28;46431;-65
2023/05/10 09:50:25;;;;;;;3.00;1.10;;;16.70;53.90;;;;;;5079605;28;46300;-65
2023/05/10 09:52:54;;;;;;;2.43;1.03;;;17.00;53.80;;;;;;5076499;28;46436;-66
2023/05/10 09:55:22;;;;;;;1.90;0.93;;;17.20;53.40;;;;;;5077659;28;46299;-66
2023/05/10 09:57:49;;;;;;;2.37;1.20;;;17.30;52.90;;;;;;5075783;28;46897;-65
2023/05/10 10:00:21;;;;;;;3.13;0.93;;;17.40;51.50;;;;;;5077846;28;46295;-65
2023/05/10 10:02:53;;;;;;;2.97;1.30;;;17.50;52.30;;;;;;5076495;28;46546;-67
2023/05/10 10:05:19;;;;;;;2.73;1.30;;;17.50;51.50;;;;;;5077533;28;46911;-66
2023/05/10 10:07:45;;;;;;;2.63;1.50;;;17.40;50.70;;;;;;5078033;28;46393;-67
2023/05/10 10:10:12;;;;;;;1.90;1.00;;;17.00;51.30;;;;;;5075993;28;46565;-66
2023/05/10 10:12:39;;;;;;;3.20;1.40;;;16.90;52.60;;;;;;5075506;28;47055;-68
2023/05/10 10:15:07;;;;;;;2.20;1.20;;;16.80;52.90;;;;;;5077100;28;46197;-67
2023/05/10 10:17:34;;;;;;;3.73;1.17;;;16.70;53.00;;;;;;5078757;28;46372;-66
2023/05/10 10:20:00;;;;;;;7.30;1.17;;;16.70;53.30;;;;;;5079642;28;46557;-67
2023/05/10 10:22:25;;;;;;;2.50;1.30;;;16.60;53.60;;;;;;5075638;28;45991;-67
2023/05/10 10:24:51;;;;;;;2.20;1.30;;;16.90;53.40;;;;;;5079496;28;46609;-67
2023/05/10 10:27:26;;;;;;;1.90;1.10;;;17.30;52.30;;;;;;5073835;28;46496;-68
2023/05/10 10:30:12;;;;;;;5.23;1.40;;;17.60;51.60;;;;;;5077180;28;46514;-68
2023/05/10 10:32:52;;;;;;;4.30;1.33;;;18.00;50.70;;;;;;5076670;28;46578;-69
2023/05/10 10:35:18;;;;;;;2.20;1.30;;;18.20;49.30;;;;;;5072333;28;46427;-67
2023/05/10 10:37:50;;;;;;;2.87;1.40;;;18.30;49.10;;;;;;5076587;28;46370;-66
2023/05/10 10:40:27;;;;;;;3.23;1.00;;;18.20;49.00;;;;;;5077769;28;46510;-69
2023/05/10 10:42:53;;;;;;;2.53;1.20;;;17.80;48.30;;;;;;5077348;28;46498;-68
2023/05/10 10:45:20;;;;;;;2.73;1.13;;;17.80;48.30;;;;;;5077819;28;46845;-68
2023/05/10 10:47:46;;;;;;;2.43;1.30;;;18.10;48.30;;;;;;5075686;28;46673;-68
2023/05/10 10:50:16;;;;;;;3.03;1.13;;;18.30;46.40;;;;;;5078062;28;45980;-67
2023/05/10 10:52:48;;;;;;;2.27;1.10;;;18.50;46.30;;;;;;5076286;28;46502;-69
2023/05/10 10:55:18;;;;;;;4.50;1.50;;;18.90;46.60;;;;;;5073781;28;47022;-68
2023/05/10 10:57:48;;;;;;;3.00;1.00;;;19.20;45.50;;;;;;5075608;28;45760;-67
2023/05/10 11:00:26;;;;;;;3.83;1.27;;;19.30;43.60;;;;;;5074840;28;46532;-67
2023/05/10 11:02:53;;;;;;;2.93;1.30;;;19.60;44.30;;;;;;5076145;28;46316;-68
2023/05/10 11:05:41;;;;;;;3.27;1.23;;;19.50;43.60;;;;;;5075048;28;46509;-67
2023/05/10 11:08:19;;;;;;;7.23;1.20;;;19.40;43.30;;;;;;5076821;28;46365;-67
2023/05/10 11:10:58;;;;;;;2.27;1.10;;;19.40;42.70;;;;;;5076110;28;46520;-66
2023/05/10 11:13:27;;;;;;;5.27;1.53;;;19.40;42.50;;;;;;5076829;28;46325;-66
2023/05/10 11:15:53;;;;;;;6.90;1.30;;;19.40;43.30;;;;;;5078975;28;47129;-68
2023/05/10 11:18:20;;;;;;;2.87;1.50;;;19.20;43.40;;;;;;5076319;28;46571;-68
2023/05/10 11:21:03;;;;;;;7.53;1.30;;;19.10;45.10;;;;;;5077076;28;46395;-68
2023/05/10 11:23:47;;;;;;;2.40;1.20;;;18.90;44.40;;;;;;5076558;28;46442;-68
2023/05/10 11:26:13;;;;;;;3.30;1.20;;;18.90;43.90;;;;;;5076801;28;46717;-66
2023/05/10 11:28:48;;;;;;;6.83;1.10;;;18.50;43.10;;;;;;5077697;27;46402;-66
2023/05/10 11:31:15;;;;;;;2.20;1.07;;;18.40;42.80;;;;;;5076851;28;46483;-66
2023/05/10 11:33:46;;;;;;;3.00;0.97;;;18.30;43.50;;;;;;5077618;28;46037;-65
2023/05/10 11:36:16;;;;;;;2.20;0.90;;;18.10;42.80;;;;;;5077658;28;46597;-66
2023/05/10 11:38:42;;;;;;;3.13;0.97;;;18.20;42.80;;;;;;5076893;27;46342;-68
2023/05/10 11:41:12;;;;;;;4.73;1.20;;;18.10;42.70;;;;;;5077839;28;45800;-68
2023/05/10 11:43:41;;;;;;;2.07;1.00;;;18.30;43.10;;;;;;5079842;28;46554;-68
2023/05/10 11:46:10;;;;;;;4.67;1.00;;;18.40;42.10;;;;;;5078062;28;46372;-68
2023/05/10 11:48:36;;;;;;;5.60;1.20;;;18.70;41.70;;;;;;5095849;27;46465;-66
2023/05/10 11:51:02;;;;;;;4.47;1.50;;;18.50;41.90;;;;;;5079072;28;46370;-68
2023/05/10 11:53:31;;;;;;;2.17;1.00;;;18.60;41.60;;;;;;5075295;28;46100;-69
2023/05/10 11:56:03;;;;;;;2.50;1.10;;;18.50;42.20;;;;;;5077867;28;46498;-68
2023/05/10 11:58:29;;;;;;;2.60;1.17;;;18.40;42.10;;;;;;5076259;28;46682;-69
2023/05/10 12:00:54;;;;;;;3.00;1.03;;;18.40;42.60;;;;;;5079185;28;46743;-69
2023/05/10 12:03:20;;;;;;;3.13;1.30;;;18.60;42.80;;;;;;5078899;28;46600;-69
2023/05/10 12:05:46;;;;;;;1.90;0.90;;;18.70;42.30;;;;;;5079813;28;46736;-69
2023/05/10 12:08:13;;;;;;;2.60;1.20;;;18.50;41.10;;;;;;5080333;28;46479;-70
2023/05/10 12:10:38;;;;;;;2.63;1.00;;;18.60;42.10;;;;;;5078662;28;46350;-69
2023/05/10 12:13:04;;;;;;;2.87;1.13;;;18.60;41.20;;;;;;5079736;28;45903;-69
2023/05/10 12:15:29;;;;;;;3.80;1.20;;;18.30;40.00;;;;;;5076959;28;46991;-68
2023/05/10 12:17:56;;;;;;;2.10;1.00;;;18.40;40.50;;;;;;5077908;28;45938;-69
2023/05/10 12:20:24;;;;;;;2.83;0.90;;;18.60;40.50;;;;;;5078638;28;46486;-68
2023/05/10 12:22:51;;;;;;;2.63;1.30;;;18.70;40.40;;;;;;5078769;28;46395;-69
2023/05/10 12:25:22;;;;;;;4.20;1.00;;;18.50;40.20;;;;;;5077902;28;46878;-66
2023/05/10 12:27:52;;;;;;;2.17;0.83;;;18.40;40.70;;;;;;5078570;28;46527;-67
2023/05/10 12:30:22;;;;;;;3.07;1.00;;;18.20;40.40;;;;;;5076066;28;46589;-68
2023/05/10 12:32:48;;;;;;;4.23;0.90;;;18.10;41.40;;;;;;5079286;28;46440;-69
2023/05/10 12:35:13;;;;;;;2.00;1.00;;;18.10;41.50;;;;;;5073580;28;46076;-68
2023/05/10 12:37:39;;;;;;;2.20;0.90;;;18.20;41.60;;;;;;5078966;28;46461;-68
2023/05/10 12:40:10;;;;;;;2.20;0.90;;;18.20;42.40;;;;;;5080994;28;46443;-67
2023/05/10 12:42:37;;;;;;;1.83;0.87;;;18.10;40.70;;;;;;5078118;28;46175;-68
2023/05/10 12:45:03;;;;;;;5.20;1.30;;;17.80;41.80;;;;;;5078917;28;47082;-67
2023/05/10 12:47:30;;;;;;;5.30;1.00;;;17.50;42.60;;;;;;5072144;28;46800;-66
2023/05/10 12:49:55;;;;;;;2.57;1.00;;;17.30;43.30;;;;;;5077704;28;46590;-67
2023/05/10 12:52:21;;;;;;;2.27;1.07;;;16.90;44.80;;;;;;5075055;28;46249;-66